createdAt,value
2023-03-10T00:00:01.838Z,64.57
2023-03-10T00:03:05.087Z,64.81
2023-03-10T00:06:09.054Z,65.75
2023-03-10T00:09:13.942Z,65.27
2023-03-10T00:12:16.765Z,65.33
2023-03-10T00:15:19.705Z,65.54
2023-03-10T00:18:22.412Z,66.43
2023-03-10T00:21:27.049Z,66.25
2023-03-10T00:24:31.064Z,65.46
2023-03-10T00:27:33.973Z,66.39
2023-03-10T00:30:36.827Z,67.13
2023-03-10T00:33:39.788Z,66.59
2023-03-10T00:36:42.596Z,66.20
2023-03-10T00:39:46.836Z,66.15
2023-03-10T00:42:49.514Z,66.66
2023-03-10T00:45:52.271Z,65.79
2023-03-10T00:48:55.125Z,65.78
2023-03-10T00:51:57.809Z,66.41
2023-03-10T00:55:01.917Z,66.64
2023-03-10T00:58:04.648Z,66.77
2023-03-10T01:01:15.535Z,66.50
2023-03-10T01:04:20.084Z,65.89
2023-03-10T01:07:23.028Z,65.54
2023-03-10T01:10:27.234Z,65.99
2023-03-10T01:13:30.266Z,66.05
2023-03-10T01:16:33.556Z,65.92
2023-03-10T01:19:36.486Z,65.86
2023-03-10T01:22:39.273Z,66.07
2023-03-10T01:25:43.621Z,66.80
2023-03-10T01:28:46.561Z,66.30
2023-03-10T01:31:49.280Z,67.02
2023-03-10T01:34:52.075Z,67.44
2023-03-10T01:37:55.166Z,66.72
2023-03-10T01:40:59.496Z,67.40
2023-03-10T01:44:04.829Z,66.75
2023-03-10T01:47:07.741Z,67.29
2023-03-10T01:50:14.751Z,67.80
2023-03-10T01:53:20.574Z,67.74
2023-03-10T01:56:25.087Z,66.94
2023-03-10T01:59:29.437Z,67.20
2023-03-10T02:02:36.346Z,68.05
2023-03-10T02:05:44.109Z,66.73
2023-03-10T02:08:50.149Z,67.13
2023-03-10T02:11:55.634Z,67.05
2023-03-10T02:14:58.775Z,67.73
2023-03-10T02:18:03.394Z,68.29
2023-03-10T02:21:18.969Z,68.53
2023-03-10T02:24:28.423Z,68.42
2023-03-10T02:27:35.645Z,69.04
2023-03-10T02:30:41.545Z,69.70
2023-03-10T02:33:47.047Z,70.39
2023-03-10T02:36:49.753Z,70.70
2023-03-10T02:39:52.521Z,71.48
2023-03-10T02:42:57.437Z,71.43
2023-03-10T02:46:03.762Z,71.94
2023-03-10T02:49:10.637Z,72.59
2023-03-10T02:52:23.634Z,73.28
2023-03-10T02:55:26.412Z,73.35
2023-03-10T02:58:33.164Z,74.14
2023-03-10T03:01:36.053Z,74.46
2023-03-10T03:04:38.763Z,74.43
2023-03-10T03:07:41.517Z,74.93
2023-03-10T03:10:44.477Z,75.33
2023-03-10T03:13:48.694Z,75.91
2023-03-10T03:16:51.486Z,76.39
2023-03-10T03:19:54.219Z,76.96
2023-03-10T03:22:58.568Z,77.19
2023-03-10T03:26:01.818Z,77.43
2023-03-10T03:29:05.898Z,78.12
2023-03-10T03:32:09.014Z,77.61
2023-03-10T03:35:15.936Z,77.81
2023-03-10T03:38:18.715Z,78.65
2023-03-10T03:41:21.495Z,78.81
2023-03-10T03:44:26.086Z,78.36
2023-03-10T03:47:29.257Z,79.64
2023-03-10T03:50:32.159Z,79.39
2023-03-10T03:53:35.309Z,79.88
2023-03-10T03:56:38.000Z,79.63
2023-03-10T03:59:42.020Z,79.99
2023-03-10T04:02:44.738Z,80.22
2023-03-10T04:05:47.572Z,79.25
2023-03-10T04:08:50.875Z,79.04
2023-03-10T04:11:53.797Z,79.35
2023-03-10T04:14:58.350Z,80.12
2023-03-10T04:18:01.208Z,79.35
2023-03-10T04:21:04.248Z,79.36
2023-03-10T04:24:08.158Z,78.96
2023-03-10T04:27:11.617Z,79.92
2023-03-10T04:30:16.863Z,79.88
2023-03-10T04:33:19.748Z,79.86
2023-03-10T04:36:22.480Z,79.35
2023-03-10T04:39:25.309Z,78.67
2023-03-10T04:42:28.147Z,78.59
2023-03-10T04:45:32.402Z,79.26
2023-03-10T04:48:35.171Z,78.05
2023-03-10T04:51:37.904Z,77.75
2023-03-10T04:54:40.710Z,78.39
2023-03-10T04:57:43.524Z,77.98
2023-03-10T05:01:02.470Z,78.19
2023-03-10T05:04:06.805Z,78.80
2023-03-10T05:07:09.738Z,78.90
2023-03-10T05:10:13.426Z,78.75
2023-03-10T05:13:16.079Z,77.99
2023-03-10T05:16:22.964Z,78.27
2023-03-10T05:19:25.943Z,77.93
2023-03-10T05:22:28.971Z,78.78
2023-03-10T05:25:31.787Z,77.13
2023-03-10T05:28:34.480Z,78.18
2023-03-10T05:31:38.674Z,78.33
2023-03-10T05:34:41.511Z,77.93
2023-03-10T05:37:45.398Z,78.95
2023-03-10T05:40:48.208Z,77.88
2023-03-10T05:43:51.054Z,77.90
2023-03-10T05:46:55.284Z,77.58
2023-03-10T05:49:57.941Z,77.75
2023-03-10T05:53:00.684Z,77.55
2023-03-10T05:56:07.189Z,77.54
2023-03-10T05:59:09.945Z,76.67
2023-03-10T06:02:14.108Z,75.75
2023-03-10T06:05:17.290Z,76.17
2023-03-10T06:08:20.211Z,76.27
2023-03-10T06:11:23.069Z,77.16
2023-03-10T06:14:26.328Z,78.87
2023-03-10T06:17:30.962Z,78.98
2023-03-10T06:20:39.688Z,79.23
2023-03-10T06:23:42.900Z,80.27
2023-03-10T06:26:45.699Z,81.67
2023-03-10T06:29:49.585Z,81.64
2023-03-10T06:32:53.855Z,81.93
2023-03-10T06:35:57.570Z,82.57
2023-03-10T06:39:00.628Z,81.96
2023-03-10T06:42:03.434Z,82.32
2023-03-10T06:45:07.214Z,82.23
2023-03-10T06:48:11.604Z,81.96
2023-03-10T06:51:16.858Z,80.46
2023-03-10T06:54:19.535Z,79.14
2023-03-10T06:57:22.468Z,78.87
2023-03-10T07:00:25.479Z,78.65
2023-03-10T07:03:30.055Z,77.08
2023-03-10T07:06:33.317Z,77.37
2023-03-10T07:09:36.020Z,77.30
2023-03-10T07:12:38.957Z,77.71
2023-03-10T07:15:41.979Z,77.93
2023-03-10T07:18:46.627Z,78.45
2023-03-10T07:21:49.414Z,79.91
2023-03-10T07:24:55.403Z,79.42
2023-03-10T07:27:58.285Z,79.69
2023-03-10T07:31:04.368Z,79.14
2023-03-10T07:34:08.519Z,79.32
2023-03-10T07:37:11.281Z,80.13
2023-03-10T07:40:14.128Z,79.15
2023-03-10T07:43:16.893Z,79.13
2023-03-10T07:46:22.328Z,79.74
2023-03-10T07:49:26.691Z,80.02
2023-03-10T07:52:30.710Z,80.36
2023-03-10T07:55:33.416Z,80.42
2023-03-10T07:58:36.838Z,79.92
2023-03-10T08:01:39.919Z,80.22
2023-03-10T08:04:44.245Z,80.07
2023-03-10T08:07:47.423Z,81.92
2023-03-10T08:10:50.299Z,81.93
2023-03-10T08:13:53.584Z,82.64
2023-03-10T08:16:57.061Z,82.79
2023-03-10T08:20:01.480Z,83.48
2023-03-10T08:23:05.050Z,83.63
2023-03-10T08:26:13.603Z,83.77
2023-03-10T08:29:16.584Z,82.79
2023-03-10T08:32:19.852Z,84.27
2023-03-10T08:35:24.086Z,85.06
2023-03-10T08:38:26.813Z,85.60
2023-03-10T08:41:32.019Z,83.96
2023-03-10T08:44:34.822Z,83.17
2023-03-10T08:47:38.144Z,80.72
2023-03-10T08:50:42.336Z,81.99
2023-03-10T08:53:47.125Z,82.25
2023-03-10T08:56:50.319Z,81.73
2023-03-10T08:59:53.153Z,83.27
2023-03-10T09:02:56.153Z,83.43
2023-03-10T09:06:00.244Z,80.23
2023-03-10T09:09:03.340Z,80.80
2023-03-10T09:12:07.083Z,80.22
2023-03-10T09:15:10.876Z,77.87
2023-03-10T09:18:15.082Z,78.05
2023-03-10T09:21:20.518Z,76.13
2023-03-10T09:24:23.373Z,74.57
2023-03-10T09:27:26.110Z,73.79
2023-03-10T09:30:29.544Z,75.72
2023-03-10T09:33:33.195Z,76.03
2023-03-10T09:36:37.558Z,78.64
2023-03-10T09:39:40.436Z,76.42
2023-03-10T09:42:46.580Z,75.47
2023-03-10T09:45:56.290Z,74.03
2023-03-10T09:49:06.516Z,76.57
2023-03-10T09:52:28.152Z,77.51
2023-03-10T09:55:38.284Z,77.13
2023-03-10T09:58:46.527Z,77.41
2023-03-10T10:01:51.788Z,75.46
2023-03-10T10:04:58.082Z,76.00
2023-03-10T10:08:07.019Z,77.65
2023-03-10T10:11:15.444Z,76.87
2023-03-10T10:14:38.468Z,76.80
2023-03-10T10:18:08.358Z,78.26
2023-03-10T10:21:21.334Z,77.48
2023-03-10T10:24:26.164Z,78.69
2023-03-10T10:27:31.304Z,79.42
2023-03-10T10:30:37.465Z,79.38
2023-03-10T10:33:55.279Z,80.77
2023-03-10T10:36:58.270Z,81.28
2023-03-10T10:40:04.876Z,81.06
2023-03-10T10:43:07.845Z,81.94
2023-03-10T10:46:13.506Z,82.79
2023-03-10T10:49:23.092Z,82.11
2023-03-10T10:52:27.058Z,81.91
2023-03-10T10:55:34.767Z,80.59
2023-03-10T10:58:39.558Z,78.87
2023-03-10T11:01:52.242Z,80.97
2023-03-10T11:04:55.478Z,80.58
2023-03-10T11:08:18.776Z,77.46
2023-03-10T11:11:29.850Z,78.06
2023-03-10T11:14:49.372Z,75.70
2023-03-10T11:17:57.586Z,77.55
2023-03-10T11:21:05.539Z,75.93
2023-03-10T11:24:17.541Z,77.33
2023-03-10T11:27:30.874Z,76.46
2023-03-10T11:30:34.801Z,77.12
2023-03-10T11:33:44.752Z,76.44
2023-03-10T11:36:57.277Z,75.42
2023-03-10T11:40:19.625Z,74.64
2023-03-10T11:43:33.779Z,75.20
2023-03-10T11:46:45.039Z,74.90
2023-03-10T11:49:55.214Z,76.12
2023-03-10T11:53:03.487Z,75.92
2023-03-10T11:56:09.738Z,76.77
2023-03-10T11:59:20.150Z,75.68
2023-03-10T12:02:27.832Z,77.33
2023-03-10T12:05:45.377Z,78.21
2023-03-10T12:08:54.560Z,76.37
2023-03-10T12:11:57.870Z,76.13
2023-03-10T12:15:05.952Z,75.40
2023-03-10T12:18:09.684Z,73.44
2023-03-10T12:21:21.564Z,74.07
2023-03-10T12:24:45.568Z,73.13
2023-03-10T12:28:12.595Z,71.25
2023-03-10T12:31:46.897Z,70.13
2023-03-10T12:35:40.133Z,68.19
2023-03-10T12:38:49.889Z,70.10
2023-03-10T12:41:54.091Z,68.25
2023-03-10T12:45:12.733Z,68.76
2023-03-10T12:48:20.839Z,68.46
2023-03-10T12:51:26.744Z,68.16
2023-03-10T12:54:49.208Z,68.87
2023-03-10T12:58:09.887Z,68.62
2023-03-10T13:01:18.124Z,68.71
2023-03-10T13:04:23.984Z,69.07
2023-03-10T13:07:29.128Z,70.83
2023-03-10T13:10:34.180Z,70.63
2023-03-10T13:13:38.932Z,70.88
2023-03-10T13:16:42.824Z,70.51
2023-03-10T13:20:04.084Z,71.29
2023-03-10T13:23:07.597Z,70.23
2023-03-10T13:26:17.591Z,69.74
2023-03-10T13:29:22.099Z,70.51
2023-03-10T13:32:26.322Z,71.40
2023-03-10T13:35:35.957Z,73.62
2023-03-10T13:38:43.587Z,74.53
2023-03-10T13:41:48.551Z,76.88
2023-03-10T13:44:52.316Z,77.93
2023-03-10T13:47:56.514Z,77.80
2023-03-10T13:51:09.448Z,78.05
2023-03-10T13:54:20.216Z,78.15
2023-03-10T13:57:28.570Z,78.29
2023-03-10T14:00:32.520Z,77.73
2023-03-10T14:03:35.476Z,77.89
2023-03-10T14:06:40.360Z,76.97
2023-03-10T14:09:43.072Z,78.99
2023-03-10T14:12:48.208Z,77.62
2023-03-10T14:15:55.412Z,76.79
2023-03-10T14:18:58.254Z,78.30
2023-03-10T14:22:02.586Z,78.02
2023-03-10T14:25:14.474Z,79.13
2023-03-10T14:28:23.034Z,80.10
2023-03-10T14:31:26.237Z,80.35
2023-03-10T14:34:29.054Z,82.23
2023-03-10T14:37:33.585Z,83.80
2023-03-10T14:40:41.689Z,84.72
2023-03-10T14:43:44.610Z,85.94
2023-03-10T14:46:48.026Z,87.14
2023-03-10T14:49:51.039Z,88.05
2023-03-10T14:52:55.237Z,88.24
2023-03-10T14:56:01.499Z,89.03
2023-03-10T14:59:06.575Z,88.47
2023-03-10T15:02:18.524Z,87.46
2023-03-10T15:05:25.942Z,86.86
2023-03-10T15:08:31.744Z,86.68
2023-03-10T15:11:37.612Z,87.13
2023-03-10T15:14:41.630Z,85.98
2023-03-10T15:17:45.099Z,86.70
2023-03-10T15:20:48.241Z,82.23
2023-03-10T15:23:52.509Z,80.72
2023-03-10T15:26:55.649Z,81.01
2023-03-10T15:29:58.385Z,80.66
2023-03-10T15:33:01.639Z,79.84
2023-03-10T15:36:06.371Z,80.33
2023-03-10T15:39:14.239Z,79.73
2023-03-10T15:42:21.670Z,81.19
2023-03-10T15:45:25.172Z,79.79
2023-03-10T15:48:28.650Z,76.29
2023-03-10T15:51:31.580Z,76.17
2023-03-10T15:54:36.255Z,77.29
2023-03-10T15:57:39.266Z,75.68
2023-03-10T16:00:43.873Z,74.19
2023-03-10T16:03:47.098Z,70.16
2023-03-10T16:06:49.885Z,69.82
2023-03-10T16:09:55.516Z,70.96
2023-03-10T16:12:59.638Z,69.75
2023-03-10T16:16:06.311Z,69.39
2023-03-10T16:19:09.231Z,69.70
2023-03-10T16:22:12.211Z,69.67
2023-03-10T16:25:18.886Z,67.51
2023-03-10T16:28:21.569Z,69.14
2023-03-10T16:31:26.695Z,67.33
2023-03-10T16:34:29.720Z,66.92
2023-03-10T16:37:32.587Z,67.25
2023-03-10T16:40:36.767Z,65.66
2023-03-10T16:43:40.695Z,66.38
2023-03-10T16:46:43.881Z,67.10
2023-03-10T16:49:46.679Z,67.31
2023-03-10T16:52:55.120Z,68.66
2023-03-10T16:56:06.296Z,68.35
2023-03-10T16:59:09.428Z,67.61
2023-03-10T17:02:15.601Z,68.70
2023-03-10T17:05:18.523Z,69.44
2023-03-10T17:08:21.354Z,68.22
2023-03-10T17:11:28.063Z,69.13
2023-03-10T17:14:31.402Z,68.50
2023-03-10T17:17:34.576Z,68.90
2023-03-10T17:20:39.234Z,70.49
2023-03-10T17:23:42.387Z,69.26
2023-03-10T17:26:47.043Z,69.88
2023-03-10T17:29:49.944Z,66.51
2023-03-10T17:32:52.865Z,65.94
2023-03-10T17:35:55.692Z,64.84
2023-03-10T17:39:01.164Z,63.38
2023-03-10T17:42:05.721Z,63.03
2023-03-10T17:45:09.790Z,63.56
2023-03-10T17:48:12.828Z,63.41
2023-03-10T17:51:17.268Z,63.01
2023-03-10T17:54:22.609Z,61.81
2023-03-10T17:57:27.146Z,62.42
2023-03-10T18:00:30.136Z,64.80
2023-03-10T18:03:33.157Z,67.71
2023-03-10T18:06:37.548Z,67.87
2023-03-10T18:09:41.096Z,67.82
2023-03-10T18:12:45.220Z,69.07
2023-03-10T18:15:51.688Z,69.52
2023-03-10T18:18:55.885Z,69.52
2023-03-10T18:21:59.929Z,68.65
2023-03-10T18:25:03.006Z,69.26
2023-03-10T18:28:08.073Z,69.36
2023-03-10T18:31:17.000Z,70.36
2023-03-10T18:34:20.215Z,70.46
2023-03-10T18:37:23.267Z,70.83
2023-03-10T18:40:28.006Z,72.05
2023-03-10T18:43:34.249Z,72.19
2023-03-10T18:46:37.492Z,73.32
2023-03-10T18:49:40.766Z,74.36
2023-03-10T18:52:43.842Z,75.73
2023-03-10T18:55:46.805Z,72.62
2023-03-10T18:58:51.156Z,73.05
2023-03-10T19:01:54.562Z,73.06
2023-03-10T19:04:59.560Z,71.56
2023-03-10T19:08:02.526Z,72.31
2023-03-10T19:11:06.822Z,71.60
2023-03-10T19:14:11.399Z,69.73
2023-03-10T19:17:15.032Z,69.58
2023-03-10T19:20:18.985Z,69.59
2023-03-10T19:23:21.878Z,69.37
2023-03-10T19:26:24.763Z,70.43
2023-03-10T19:29:29.053Z,71.47
2023-03-10T19:32:31.943Z,71.96
2023-03-10T19:35:34.742Z,72.04
2023-03-10T19:38:39.052Z,72.59
2023-03-10T19:41:42.055Z,71.35
2023-03-10T19:44:47.183Z,71.37
2023-03-10T19:47:52.285Z,69.73
2023-03-10T19:50:55.407Z,69.61
2023-03-10T19:54:02.071Z,67.44
2023-03-10T19:57:04.931Z,67.74
2023-03-10T20:00:13.767Z,65.92
2023-03-10T20:03:17.345Z,66.49
2023-03-10T20:06:20.747Z,66.47
2023-03-10T20:09:24.636Z,66.90
2023-03-10T20:12:27.579Z,66.57
2023-03-10T20:15:32.271Z,67.63
2023-03-10T20:18:35.106Z,66.66
2023-03-10T20:21:38.172Z,67.24
2023-03-10T20:24:40.886Z,67.97
2023-03-10T20:27:44.312Z,67.97
2023-03-10T20:30:48.617Z,68.55
2023-03-10T20:33:51.536Z,68.78
2023-03-10T20:36:54.352Z,68.83
2023-03-10T20:39:57.302Z,67.88
2023-03-10T20:43:00.555Z,66.93
2023-03-10T20:46:04.970Z,66.79
2023-03-10T20:49:07.896Z,67.74
2023-03-10T20:52:10.749Z,67.62
2023-03-10T20:55:19.686Z,67.92
2023-03-10T20:58:22.555Z,67.34
2023-03-10T21:01:27.630Z,67.06
2023-03-10T21:04:30.613Z,67.94
2023-03-10T21:07:34.060Z,68.22
2023-03-10T21:10:37.163Z,68.89
2023-03-10T21:13:40.805Z,69.44
2023-03-10T21:16:46.737Z,69.81
2023-03-10T21:19:49.650Z,69.24
2023-03-10T21:22:52.965Z,69.31
2023-03-10T21:25:55.625Z,68.40
2023-03-10T21:29:00.110Z,69.73
2023-03-10T21:32:04.390Z,69.37
2023-03-10T21:35:08.324Z,66.06
2023-03-10T21:38:11.524Z,66.51
2023-03-10T21:41:16.032Z,68.07
2023-03-10T21:44:19.058Z,67.73
2023-03-10T21:47:23.418Z,66.88
2023-03-10T21:50:26.369Z,65.05
2023-03-10T21:53:29.868Z,66.22
2023-03-10T21:56:32.838Z,66.28
2023-03-10T21:59:35.624Z,65.27
2023-03-10T22:02:39.911Z,64.11
2023-03-10T22:05:42.902Z,63.78
2023-03-10T22:08:45.689Z,64.17
2023-03-10T22:11:48.418Z,65.18
2023-03-10T22:14:56.026Z,66.13
2023-03-10T22:18:00.190Z,65.49
2023-03-10T22:21:03.383Z,67.00
2023-03-10T22:24:06.481Z,64.27
2023-03-10T22:27:09.274Z,64.08
2023-03-10T22:30:14.342Z,65.37
2023-03-10T22:33:18.588Z,64.97
2023-03-10T22:36:21.475Z,64.27
2023-03-10T22:39:24.623Z,64.30
2023-03-10T22:42:27.458Z,63.61
2023-03-10T22:45:32.665Z,64.60
2023-03-10T22:48:37.309Z,65.11
2023-03-10T22:51:40.338Z,64.16
2023-03-10T22:54:43.311Z,62.98
2023-03-10T22:57:46.137Z,63.85
2023-03-10T23:00:48.845Z,64.14
2023-03-10T23:03:53.174Z,63.65
2023-03-10T23:06:56.028Z,63.61
2023-03-10T23:09:59.124Z,63.82
2023-03-10T23:13:03.683Z,63.06
2023-03-10T23:16:07.907Z,63.72
2023-03-10T23:19:11.994Z,63.75
2023-03-10T23:22:14.871Z,64.05
2023-03-10T23:25:19.269Z,64.77
2023-03-10T23:28:22.589Z,64.65
2023-03-10T23:31:25.570Z,64.64
2023-03-10T23:34:29.748Z,64.29
2023-03-10T23:37:32.640Z,63.21
2023-03-10T23:40:37.732Z,61.58
2023-03-10T23:43:40.600Z,61.60
2023-03-10T23:46:43.423Z,60.86
2023-03-10T23:49:47.521Z,61.64
2023-03-10T23:52:50.378Z,60.42
2023-03-10T23:55:53.699Z,61.23
2023-03-10T23:58:58.806Z,62.66
